sensor_id;sensor_type;location;lat;lon;timestamp;temperature;humidity
16838;DHT22;19510;54.486;9.046;2024-03-23T00:52:57;7.40;99.90
16838;DHT22;19510;54.486;9.046;2024-03-23T00:55:23;7.40;99.90
16838;DHT22;19510;54.486;9.046;2024-03-23T00:57:49;7.30;99.90
16838;DHT22;19510;54.486;9.046;2024-03-23T01:00:15;7.30;99.90
16838;DHT22;19510;54.486;9.046;2024-03-23T01:02:43;7.30;99.90
16838;DHT22;19510;54.486;9.046;2024-03-23T01:05:09;7.30;99.90
16838;DHT22;19510;54.486;9.046;2024-03-23T01:07:37;7.30;99.90
16838;DHT22;19510;54.486;9.046;2024-03-23T01:10:05;7.30;99.90
16838;DHT22;19510;54.486;9.046;2024-03-23T01:12:33;7.30;99.90
16838;DHT22;19510;54.486;9.046;2024-03-23T01:14:58;7.20;99.90
16838;DHT22;19510;54.486;9.046;2024-03-23T01:17:26;7.20;99.90
16838;DHT22;19510;54.486;9.046;2024-03-23T01:19:52;7.20;99.90
16838;DHT22;19510;54.486;9.046;2024-03-23T01:22:18;7.20;99.90
16838;DHT22;19510;54.486;9.046;2024-03-23T01:24:43;7.20;99.90
16838;DHT22;19510;54.486;9.046;2024-03-23T01:27:09;7.10;99.90
16838;DHT22;19510;54.486;9.046;2024-03-23T01:29:35;7.20;99.90
16838;DHT22;19510;54.486;9.046;2024-03-23T01:32:01;7.10;99.90
16838;DHT22;19510;54.486;9.046;2024-03-23T01:34:26;7.10;99.90
16838;DHT22;19510;54.486;9.046;2024-03-23T01:36:53;7.10;99.90
16838;DHT22;19510;54.486;9.046;2024-03-23T01:39:22;7.10;99.90
16838;DHT22;19510;54.486;9.046;2024-03-23T01:41:47;7.10;99.90
16838;DHT22;19510;54.486;9.046;2024-03-23T01:44:13;7.10;99.90
16838;DHT22;19510;54.486;9.046;2024-03-23T01:46:39;7.20;99.90
16838;DHT22;19510;54.486;9.046;2024-03-23T01:49:07;7.20;99.90
16838;DHT22;19510;54.486;9.046;2024-03-23T01:51:34;7.20;99.90
16838;DHT22;19510;54.486;9.046;2024-03-23T01:54:03;7.10;99.90
16838;DHT22;19510;54.486;9.046;2024-03-23T01:56:34;7.10;99.90
16838;DHT22;19510;54.486;9.046;2024-03-23T01:59:04;7.10;99.90
16838;DHT22;19510;54.486;9.046;2024-03-23T02:01:31;7.10;99.90
16838;DHT22;19510;54.486;9.046;2024-03-23T02:03:56;7.10;99.90
16838;DHT22;19510;54.486;9.046;2024-03-23T02:06:24;7.00;99.90
16838;DHT22;19510;54.486;9.046;2024-03-23T02:08:51;7.00;99.90
16838;DHT22;19510;54.486;9.046;2024-03-23T02:11:20;7.00;99.90
16838;DHT22;19510;54.486;9.046;2024-03-23T02:13:48;7.00;99.90
16838;DHT22;19510;54.486;9.046;2024-03-23T02:16:16;7.00;99.90
16838;DHT22;19510;54.486;9.046;2024-03-23T02:18:42;7.00;99.90
16838;DHT22;19510;54.486;9.046;2024-03-23T02:21:08;7.00;99.90
16838;DHT22;19510;54.486;9.046;2024-03-23T02:23:33;7.00;99.90
16838;DHT22;19510;54.486;9.046;2024-03-23T02:25:59;7.00;99.90
16838;DHT22;19510;54.486;9.046;2024-03-23T02:28:25;7.00;99.90
16838;DHT22;19510;54.486;9.046;2024-03-23T02:30:53;7.00;99.90
16838;DHT22;19510;54.486;9.046;2024-03-23T02:33:21;7.00;99.90
16838;DHT22;19510;54.486;9.046;2024-03-23T02:35:47;6.90;99.90
16838;DHT22;19510;54.486;9.046;2024-03-23T02:38:13;6.90;99.90
16838;DHT22;19510;54.486;9.046;2024-03-23T02:40:38;6.90;99.90
16838;DHT22;19510;54.486;9.046;2024-03-23T02:43:04;6.90;99.90
16838;DHT22;19510;54.486;9.046;2024-03-23T02:45:32;6.90;99.90
16838;DHT22;19510;54.486;9.046;2024-03-23T02:47:58;6.80;99.90
16838;DHT22;19510;54.486;9.046;2024-03-23T02:50:23;6.80;99.90
16838;DHT22;19510;54.486;9.046;2024-03-23T02:52:49;6.80;99.90
16838;DHT22;19510;54.486;9.046;2024-03-23T02:55:17;6.80;99.90
16838;DHT22;19510;54.486;9.046;2024-03-23T02:57:43;6.80;99.90
16838;DHT22;19510;54.486;9.046;2024-03-23T03:00:09;6.80;99.90
16838;DHT22;19510;54.486;9.046;2024-03-23T03:02:38;6.80;99.90
16838;DHT22;19510;54.486;9.046;2024-03-23T03:05:05;6.80;99.90
16838;DHT22;19510;54.486;9.046;2024-03-23T03:07:34;6.80;99.90
16838;DHT22;19510;54.486;9.046;2024-03-23T03:10:02;6.80;99.90
16838;DHT22;19510;54.486;9.046;2024-03-23T03:12:30;6.80;99.90
16838;DHT22;19510;54.486;9.046;2024-03-23T03:15:00;6.80;99.90
16838;DHT22;19510;54.486;9.046;2024-03-23T03:17:26;6.80;99.90
16838;DHT22;19510;54.486;9.046;2024-03-23T03:19:52;6.80;99.90
16838;DHT22;19510;54.486;9.046;2024-03-23T03:22:21;6.80;99.90
16838;DHT22;19510;54.486;9.046;2024-03-23T03:24:49;6.70;99.90
16838;DHT22;19510;54.486;9.046;2024-03-23T03:27:15;6.80;99.90
16838;DHT22;19510;54.486;9.046;2024-03-23T03:29:43;6.80;99.90
16838;DHT22;19510;54.486;9.046;2024-03-23T03:32:13;6.80;99.90
16838;DHT22;19510;54.486;9.046;2024-03-23T03:34:39;6.80;99.90
16838;DHT22;19510;54.486;9.046;2024-03-23T03:37:04;6.80;99.90
16838;DHT22;19510;54.486;9.046;2024-03-23T03:39:30;6.80;99.90
16838;DHT22;19510;54.486;9.046;2024-03-23T03:41:56;6.80;99.90
16838;DHT22;19510;54.486;9.046;2024-03-23T03:44:22;6.80;99.90
16838;DHT22;19510;54.486;9.046;2024-03-23T03:46:47;6.80;99.90
16838;DHT22;19510;54.486;9.046;2024-03-23T03:49:16;6.80;99.90
16838;DHT22;19510;54.486;9.046;2024-03-23T03:51:46;6.80;99.90
16838;DHT22;19510;54.486;9.046;2024-03-23T03:54:11;6.90;99.90
16838;DHT22;19510;54.486;9.046;2024-03-23T03:56:42;6.80;99.90
16838;DHT22;19510;54.486;9.046;2024-03-23T03:59:08;6.80;99.90
16838;DHT22;19510;54.486;9.046;2024-03-23T04:01:36;6.80;99.90
16838;DHT22;19510;54.486;9.046;2024-03-23T04:04:04;6.80;99.90
16838;DHT22;19510;54.486;9.046;2024-03-23T04:06:30;6.80;99.90
16838;DHT22;19510;54.486;9.046;2024-03-23T04:08:55;6.80;99.90
16838;DHT22;19510;54.486;9.046;2024-03-23T04:11:21;6.80;99.90
16838;DHT22;19510;54.486;9.046;2024-03-23T04:13:47;6.80;99.90
16838;DHT22;19510;54.486;9.046;2024-03-23T04:16:28;6.80;99.90
16838;DHT22;19510;54.486;9.046;2024-03-23T04:18:57;6.80;99.90
16838;DHT22;19510;54.486;9.046;2024-03-23T04:21:23;6.80;99.90
16838;DHT22;19510;54.486;9.046;2024-03-23T04:23:49;6.80;99.90
16838;DHT22;19510;54.486;9.046;2024-03-23T04:26:15;6.80;99.90
16838;DHT22;19510;54.486;9.046;2024-03-23T04:28:41;6.80;99.90
16838;DHT22;19510;54.486;9.046;2024-03-23T04:31:07;6.80;99.90
16838;DHT22;19510;54.486;9.046;2024-03-23T04:33:33;6.80;99.90
16838;DHT22;19510;54.486;9.046;2024-03-23T04:35:58;6.70;99.90
16838;DHT22;19510;54.486;9.046;2024-03-23T04:38:24;6.70;99.90
16838;DHT22;19510;54.486;9.046;2024-03-23T04:40:57;6.70;99.90
16838;DHT22;19510;54.486;9.046;2024-03-23T04:43:22;6.60;99.90
16838;DHT22;19510;54.486;9.046;2024-03-23T04:45:52;6.60;99.90
16838;DHT22;19510;54.486;9.046;2024-03-23T04:48:22;6.60;99.90
16838;DHT22;19510;54.486;9.046;2024-03-23T04:50:48;6.70;99.90
16838;DHT22;19510;54.486;9.046;2024-03-23T04:53:15;6.70;99.90
16838;DHT22;19510;54.486;9.046;2024-03-23T04:55:45;6.60;99.90
16838;DHT22;19510;54.486;9.046;2024-03-23T04:58:15;6.60;99.90
16838;DHT22;19510;54.486;9.046;2024-03-23T05:00:41;6.60;99.90
16838;DHT22;19510;54.486;9.046;2024-03-23T05:03:11;6.60;99.90
16838;DHT22;19510;54.486;9.046;2024-03-23T05:05:37;6.60;99.90
16838;DHT22;19510;54.486;9.046;2024-03-23T05:08:05;6.70;99.90
16838;DHT22;19510;54.486;9.046;2024-03-23T05:10:31;6.60;99.90
16838;DHT22;19510;54.486;9.046;2024-03-23T05:13:01;6.60;99.90
16838;DHT22;19510;54.486;9.046;2024-03-23T05:15:27;6.60;99.90
16838;DHT22;19510;54.486;9.046;2024-03-23T05:17:55;6.60;99.90
16838;DHT22;19510;54.486;9.046;2024-03-23T05:20:21;6.60;99.90
16838;DHT22;19510;54.486;9.046;2024-03-23T05:22:46;6.60;99.90
16838;DHT22;19510;54.486;9.046;2024-03-23T05:25:12;6.60;99.90
16838;DHT22;19510;54.486;9.046;2024-03-23T05:27:38;6.60;99.90
16838;DHT22;19510;54.486;9.046;2024-03-23T05:30:04;6.70;99.90
16838;DHT22;19510;54.486;9.046;2024-03-23T05:32:31;6.70;99.90
16838;DHT22;19510;54.486;9.046;2024-03-23T05:34:58;6.60;99.90
16838;DHT22;19510;54.486;9.046;2024-03-23T05:37:24;6.70;99.90
16838;DHT22;19510;54.486;9.046;2024-03-23T05:39:49;6.60;99.90
16838;DHT22;19510;54.486;9.046;2024-03-23T05:42:16;6.60;99.90
16838;DHT22;19510;54.486;9.046;2024-03-23T05:44:46;6.60;99.90
16838;DHT22;19510;54.486;9.046;2024-03-23T05:47:13;6.60;99.90
16838;DHT22;19510;54.486;9.046;2024-03-23T05:49:46;6.60;99.90
16838;DHT22;19510;54.486;9.046;2024-03-23T05:52:12;6.60;99.90
16838;DHT22;19510;54.486;9.046;2024-03-23T05:54:38;6.60;99.90
16838;DHT22;19510;54.486;9.046;2024-03-23T05:57:04;6.60;99.90
16838;DHT22;19510;54.486;9.046;2024-03-23T05:59:30;6.60;99.90
16838;DHT22;19510;54.486;9.046;2024-03-23T06:02:00;6.60;99.90
16838;DHT22;19510;54.486;9.046;2024-03-23T06:04:26;6.70;99.90
16838;DHT22;19510;54.486;9.046;2024-03-23T06:06:54;6.70;99.90
16838;DHT22;19510;54.486;9.046;2024-03-23T06:09:23;6.70;99.90
16838;DHT22;19510;54.486;9.046;2024-03-23T06:11:49;6.70;99.90
16838;DHT22;19510;54.486;9.046;2024-03-23T06:14:14;6.70;99.90
16838;DHT22;19510;54.486;9.046;2024-03-23T06:16:40;6.80;99.90
16838;DHT22;19510;54.486;9.046;2024-03-23T06:19:06;6.80;99.90
16838;DHT22;19510;54.486;9.046;2024-03-23T06:21:32;6.80;99.90
16838;DHT22;19510;54.486;9.046;2024-03-23T06:23:58;6.80;99.90
16838;DHT22;19510;54.486;9.046;2024-03-23T06:26:24;6.80;99.90
16838;DHT22;19510;54.486;9.046;2024-03-23T06:28:54;6.80;99.90
16838;DHT22;19510;54.486;9.046;2024-03-23T06:31:21;6.80;99.90
16838;DHT22;19510;54.486;9.046;2024-03-23T06:33:49;6.90;99.90
16838;DHT22;19510;54.486;9.046;2024-03-23T06:36:15;6.90;99.90
16838;DHT22;19510;54.486;9.046;2024-03-23T06:38:40;6.90;99.90
16838;DHT22;19510;54.486;9.046;2024-03-23T06:41:08;6.90;99.90
16838;DHT22;19510;54.486;9.046;2024-03-23T06:43:36;6.90;99.90
16838;DHT22;19510;54.486;9.046;2024-03-23T06:46:03;7.00;99.90
16838;DHT22;19510;54.486;9.046;2024-03-23T06:48:32;6.90;99.90
16838;DHT22;19510;54.486;9.046;2024-03-23T06:51:00;7.00;99.90
16838;DHT22;19510;54.486;9.046;2024-03-23T06:53:26;7.00;99.90
16838;DHT22;19510;54.486;9.046;2024-03-23T06:55:54;7.00;99.90
16838;DHT22;19510;54.486;9.046;2024-03-23T06:58:24;7.00;99.90
16838;DHT22;19510;54.486;9.046;2024-03-23T07:00:50;7.00;99.90
16838;DHT22;19510;54.486;9.046;2024-03-23T07:03:20;7.10;99.90
16838;DHT22;19510;54.486;9.046;2024-03-23T07:05:47;7.10;99.90
16838;DHT22;19510;54.486;9.046;2024-03-23T07:08:13;7.20;99.90
16838;DHT22;19510;54.486;9.046;2024-03-23T07:10:41;7.30;99.90
16838;DHT22;19510;54.486;9.046;2024-03-23T07:13:07;7.30;99.90
16838;DHT22;19510;54.486;9.046;2024-03-23T07:15:36;7.30;99.90
16838;DHT22;19510;54.486;9.046;2024-03-23T07:18:04;7.30;99.90
16838;DHT22;19510;54.486;9.046;2024-03-23T07:20:32;8.00;99.90
16838;DHT22;19510;54.486;9.046;2024-03-23T07:23:00;8.60;99.90
16838;DHT22;19510;54.486;9.046;2024-03-23T07:25:25;8.80;99.90
16838;DHT22;19510;54.486;9.046;2024-03-23T07:27:53;8.60;99.90
16838;DHT22;19510;54.486;9.046;2024-03-23T07:30:19;8.40;99.90
16838;DHT22;19510;54.486;9.046;2024-03-23T07:32:45;8.20;99.90
16838;DHT22;19510;54.486;9.046;2024-03-23T07:35:13;8.00;99.90
16838;DHT22;19510;54.486;9.046;2024-03-23T07:37:38;7.70;99.90
16838;DHT22;19510;54.486;9.046;2024-03-23T07:40:05;7.60;99.90
16838;DHT22;19510;54.486;9.046;2024-03-23T07:42:31;7.40;99.90
16838;DHT22;19510;54.486;9.046;2024-03-23T07:44:56;7.30;99.90
16838;DHT22;19510;54.486;9.046;2024-03-23T07:47:24;7.40;99.90
16838;DHT22;19510;54.486;9.046;2024-03-23T07:49:50;7.40;99.90
16838;DHT22;19510;54.486;9.046;2024-03-23T07:52:18;7.40;99.90
16838;DHT22;19510;54.486;9.046;2024-03-23T07:54:44;7.40;99.90
16838;DHT22;19510;54.486;9.046;2024-03-23T07:57:09;7.60;99.90
16838;DHT22;19510;54.486;9.046;2024-03-23T07:59:35;7.60;99.90
16838;DHT22;19510;54.486;9.046;2024-03-23T08:02:01;7.70;99.90
16838;DHT22;19510;54.486;9.046;2024-03-23T08:04:27;7.80;99.90
16838;DHT22;19510;54.486;9.046;2024-03-23T08:06:55;7.80;99.90
16838;DHT22;19510;54.486;9.046;2024-03-23T08:09:21;7.90;99.90
16838;DHT22;19510;54.486;9.046;2024-03-23T08:11:48;8.00;99.90
16838;DHT22;19510;54.486;9.046;2024-03-23T08:14:13;8.10;99.90
16838;DHT22;19510;54.486;9.046;2024-03-23T08:16:39;8.10;99.90
16838;DHT22;19510;54.486;9.046;2024-03-23T08:19:07;8.20;99.90
16838;DHT22;19510;54.486;9.046;2024-03-23T08:21:36;8.30;99.90
16838;DHT22;19510;54.486;9.046;2024-03-23T08:24:04;8.20;99.90
16838;DHT22;19510;54.486;9.046;2024-03-23T08:26:30;8.30;99.90
16838;DHT22;19510;54.486;9.046;2024-03-23T08:28:56;8.30;99.90
16838;DHT22;19510;54.486;9.046;2024-03-23T08:31:22;8.20;99.90
16838;DHT22;19510;54.486;9.046;2024-03-23T08:33:50;8.30;99.90
16838;DHT22;19510;54.486;9.046;2024-03-23T08:36:19;8.40;99.90
16838;DHT22;19510;54.486;9.046;2024-03-23T08:38:45;8.40;99.90
16838;DHT22;19510;54.486;9.046;2024-03-23T08:41:11;8.20;99.90
16838;DHT22;19510;54.486;9.046;2024-03-23T08:43:38;8.10;99.90
16838;DHT22;19510;54.486;9.046;2024-03-23T08:46:14;8.00;99.90
16838;DHT22;19510;54.486;9.046;2024-03-23T08:51:11;7.90;99.90
16838;DHT22;19510;54.486;9.046;2024-03-23T08:53:38;8.00;99.90
16838;DHT22;19510;54.486;9.046;2024-03-23T08:56:07;8.00;99.90
16838;DHT22;19510;54.486;9.046;2024-03-23T08:58:34;8.20;99.90
16838;DHT22;19510;54.486;9.046;2024-03-23T09:01:10;8.30;99.90
16838;DHT22;19510;54.486;9.046;2024-03-23T09:03:36;8.30;99.90
16838;DHT22;19510;54.486;9.046;2024-03-23T09:06:13;8.40;99.90
16838;DHT22;19510;54.486;9.046;2024-03-23T09:08:40;8.40;99.90
16838;DHT22;19510;54.486;9.046;2024-03-23T09:11:07;8.50;99.90
16838;DHT22;19510;54.486;9.046;2024-03-23T09:13:36;8.50;99.90
16838;DHT22;19510;54.486;9.046;2024-03-23T09:16:02;8.60;99.90
16838;DHT22;19510;54.486;9.046;2024-03-23T09:18:32;8.50;99.90
16838;DHT22;19510;54.486;9.046;2024-03-23T09:20:57;8.50;99.90
16838;DHT22;19510;54.486;9.046;2024-03-23T09:23:28;8.60;99.90
16838;DHT22;19510;54.486;9.046;2024-03-23T09:25:54;8.60;99.90
16838;DHT22;19510;54.486;9.046;2024-03-23T09:28:19;8.70;99.90
16838;DHT22;19510;54.486;9.046;2024-03-23T09:30:45;8.70;99.90
16838;DHT22;19510;54.486;9.046;2024-03-23T09:33:12;8.80;99.90
16838;DHT22;19510;54.486;9.046;2024-03-23T09:35:41;8.90;99.90
16838;DHT22;19510;54.486;9.046;2024-03-23T09:38:08;9.00;99.90
16838;DHT22;19510;54.486;9.046;2024-03-23T09:40:35;9.00;99.90
16838;DHT22;19510;54.486;9.046;2024-03-23T09:43:01;9.00;99.90
16838;DHT22;19510;54.486;9.046;2024-03-23T09:45:28;9.00;99.90
16838;DHT22;19510;54.486;9.046;2024-03-23T09:47:55;9.10;99.90
16838;DHT22;19510;54.486;9.046;2024-03-23T09:50:24;9.10;99.90
16838;DHT22;19510;54.486;9.046;2024-03-23T09:52:50;9.20;99.90
16838;DHT22;19510;54.486;9.046;2024-03-23T09:55:16;9.30;99.90
16838;DHT22;19510;54.486;9.046;2024-03-23T09:57:42;9.50;99.90
16838;DHT22;19510;54.486;9.046;2024-03-23T10:00:08;9.60;99.90
16838;DHT22;19510;54.486;9.046;2024-03-23T10:02:35;9.70;99.90
16838;DHT22;19510;54.486;9.046;2024-03-23T10:05:03;9.70;99.90
16838;DHT22;19510;54.486;9.046;2024-03-23T10:07:29;9.70;99.90
16838;DHT22;19510;54.486;9.046;2024-03-23T10:09:55;9.80;99.90
16838;DHT22;19510;54.486;9.046;2024-03-23T10:12:24;9.80;99.90
16838;DHT22;19510;54.486;9.046;2024-03-23T10:14:50;9.90;99.90
16838;DHT22;19510;54.486;9.046;2024-03-23T10:17:22;10.00;99.90
16838;DHT22;19510;54.486;9.046;2024-03-23T10:19:51;9.70;99.90
16838;DHT22;19510;54.486;9.046;2024-03-23T10:22:19;9.50;99.90
16838;DHT22;19510;54.486;9.046;2024-03-23T10:24:45;9.40;99.90
16838;DHT22;19510;54.486;9.046;2024-03-23T10:27:15;9.50;99.90
16838;DHT22;19510;54.486;9.046;2024-03-23T10:29:43;9.60;99.90
16838;DHT22;19510;54.486;9.046;2024-03-23T10:32:17;9.60;99.90
16838;DHT22;19510;54.486;9.046;2024-03-23T10:34:43;9.60;99.90
16838;DHT22;19510;54.486;9.046;2024-03-23T10:37:09;9.70;99.90
16838;DHT22;19510;54.486;9.046;2024-03-23T10:39:40;9.60;99.90
16838;DHT22;19510;54.486;9.046;2024-03-23T10:42:08;9.70;99.90
16838;DHT22;19510;54.486;9.046;2024-03-23T10:44:36;9.70;99.90
16838;DHT22;19510;54.486;9.046;2024-03-23T10:47:03;9.70;99.90
16838;DHT22;19510;54.486;9.046;2024-03-23T10:49:32;9.90;99.90
16838;DHT22;19510;54.486;9.046;2024-03-23T10:52:02;9.90;99.90
16838;DHT22;19510;54.486;9.046;2024-03-23T10:54:32;10.00;99.90
16838;DHT22;19510;54.486;9.046;2024-03-23T10:57:27;10.10;99.90
16838;DHT22;19510;54.486;9.046;2024-03-23T10:59:55;10.00;99.90
16838;DHT22;19510;54.486;9.046;2024-03-23T11:02:22;9.90;99.90
16838;DHT22;19510;54.486;9.046;2024-03-23T11:04:48;9.40;99.90
16838;DHT22;19510;54.486;9.046;2024-03-23T11:07:32;9.30;99.90
16838;DHT22;19510;54.486;9.046;2024-03-23T11:09:59;9.40;99.90
16838;DHT22;19510;54.486;9.046;2024-03-23T11:12:29;9.60;99.90
16838;DHT22;19510;54.486;9.046;2024-03-23T11:15:04;9.70;99.90
16838;DHT22;19510;54.486;9.046;2024-03-23T11:17:32;9.80;99.90
16838;DHT22;19510;54.486;9.046;2024-03-23T11:20:05;9.90;99.90
16838;DHT22;19510;54.486;9.046;2024-03-23T11:25:16;10.00;99.90
16838;DHT22;19510;54.486;9.046;2024-03-23T11:27:46;9.90;99.90
16838;DHT22;19510;54.486;9.046;2024-03-23T11:30:13;9.80;99.90
16838;DHT22;19510;54.486;9.046;2024-03-23T11:32:49;9.80;99.90
16838;DHT22;19510;54.486;9.046;2024-03-23T11:38:15;9.90;99.90
16838;DHT22;19510;54.486;9.046;2024-03-23T11:40:45;9.90;99.90
16838;DHT22;19510;54.486;9.046;2024-03-23T11:43:19;10.00;99.90
16838;DHT22;19510;54.486;9.046;2024-03-23T11:45:51;10.10;99.90
16838;DHT22;19510;54.486;9.046;2024-03-23T11:48:20;9.90;99.90
16838;DHT22;19510;54.486;9.046;2024-03-23T11:50:57;9.40;99.90
16838;DHT22;19510;54.486;9.046;2024-03-23T11:53:24;9.10;99.90
16838;DHT22;19510;54.486;9.046;2024-03-23T11:58:27;9.00;99.90
16838;DHT22;19510;54.486;9.046;2024-03-23T12:00:57;9.30;99.90
16838;DHT22;19510;54.486;9.046;2024-03-23T12:03:24;9.60;99.90
16838;DHT22;19510;54.486;9.046;2024-03-23T12:05:58;9.70;99.90
16838;DHT22;19510;54.486;9.046;2024-03-23T12:08:31;9.90;99.90
16838;DHT22;19510;54.486;9.046;2024-03-23T12:11:17;10.20;99.90
16838;DHT22;19510;54.486;9.046;2024-03-23T12:13:44;10.20;99.90
16838;DHT22;19510;54.486;9.046;2024-03-23T12:16:15;10.00;99.90
16838;DHT22;19510;54.486;9.046;2024-03-23T12:18:44;9.90;99.90
16838;DHT22;19510;54.486;9.046;2024-03-23T12:21:10;9.80;99.90
16838;DHT22;19510;54.486;9.046;2024-03-23T12:23:38;9.70;99.90
16838;DHT22;19510;54.486;9.046;2024-03-23T12:26:04;9.60;99.90
16838;DHT22;19510;54.486;9.046;2024-03-23T12:28:30;9.30;99.90
16838;DHT22;19510;54.486;9.046;2024-03-23T12:30:55;9.10;99.90
16838;DHT22;19510;54.486;9.046;2024-03-23T12:33:21;9.00;99.90
16838;DHT22;19510;54.486;9.046;2024-03-23T12:35:50;9.00;99.90
16838;DHT22;19510;54.486;9.046;2024-03-23T12:38:16;9.10;99.90
16838;DHT22;19510;54.486;9.046;2024-03-23T12:40:46;9.40;99.90
16838;DHT22;19510;54.486;9.046;2024-03-23T12:43:13;9.60;99.90
16838;DHT22;19510;54.486;9.046;2024-03-23T12:45:41;9.50;99.90
16838;DHT22;19510;54.486;9.046;2024-03-23T12:48:11;9.50;99.90
16838;DHT22;19510;54.486;9.046;2024-03-23T12:50:37;9.80;99.90
16838;DHT22;19510;54.486;9.046;2024-03-23T12:53:04;10.00;99.90
16838;DHT22;19510;54.486;9.046;2024-03-23T12:55:30;10.10;99.90
16838;DHT22;19510;54.486;9.046;2024-03-23T12:57:56;10.20;99.90
16838;DHT22;19510;54.486;9.046;2024-03-23T13:00:22;10.50;99.90
16838;DHT22;19510;54.486;9.046;2024-03-23T13:02:47;10.50;99.90
16838;DHT22;19510;54.486;9.046;2024-03-23T13:05:13;10.90;99.90
16838;DHT22;19510;54.486;9.046;2024-03-23T13:07:39;11.00;99.90
16838;DHT22;19510;54.486;9.046;2024-03-23T13:10:07;10.80;99.90
16838;DHT22;19510;54.486;9.046;2024-03-23T13:12:34;10.80;99.90
16838;DHT22;19510;54.486;9.046;2024-03-23T13:15:00;10.80;99.90
16838;DHT22;19510;54.486;9.046;2024-03-23T13:17:27;10.90;99.90
16838;DHT22;19510;54.486;9.046;2024-03-23T13:19:53;10.80;99.90
16838;DHT22;19510;54.486;9.046;2024-03-23T13:22:19;10.50;99.90
16838;DHT22;19510;54.486;9.046;2024-03-23T13:24:45;10.70;99.90
16838;DHT22;19510;54.486;9.046;2024-03-23T13:27:13;10.90;99.90
16838;DHT22;19510;54.486;9.046;2024-03-23T13:29:38;10.90;99.90
16838;DHT22;19510;54.486;9.046;2024-03-23T13:32:05;11.20;99.90
16838;DHT22;19510;54.486;9.046;2024-03-23T13:34:31;11.30;99.90
16838;DHT22;19510;54.486;9.046;2024-03-23T13:36:58;11.20;99.90
16838;DHT22;19510;54.486;9.046;2024-03-23T13:39:24;11.30;99.90
16838;DHT22;19510;54.486;9.046;2024-03-23T13:41:53;11.20;99.90
16838;DHT22;19510;54.486;9.046;2024-03-23T13:44:21;11.00;99.90
16838;DHT22;19510;54.486;9.046;2024-03-23T13:46:46;10.60;99.90
16838;DHT22;19510;54.486;9.046;2024-03-23T13:49:26;10.10;99.90
16838;DHT22;19510;54.486;9.046;2024-03-23T13:51:52;9.90;99.90
16838;DHT22;19510;54.486;9.046;2024-03-23T13:54:18;9.70;99.90
16838;DHT22;19510;54.486;9.046;2024-03-23T13:56:44;9.50;99.90
16838;DHT22;19510;54.486;9.046;2024-03-23T13:59:10;9.60;99.90
16838;DHT22;19510;54.486;9.046;2024-03-23T14:01:36;9.70;99.90
16838;DHT22;19510;54.486;9.046;2024-03-23T14:04:02;10.00;99.90
16838;DHT22;19510;54.486;9.046;2024-03-23T14:06:27;10.30;99.90
16838;DHT22;19510;54.486;9.046;2024-03-23T14:08:56;10.40;99.90
16838;DHT22;19510;54.486;9.046;2024-03-23T14:11:24;10.40;99.90
16838;DHT22;19510;54.486;9.046;2024-03-23T14:13:52;10.50;99.90
16838;DHT22;19510;54.486;9.046;2024-03-23T14:16:18;10.60;99.90
16838;DHT22;19510;54.486;9.046;2024-03-23T14:18:46;10.70;99.90
16838;DHT22;19510;54.486;9.046;2024-03-23T14:21:15;10.70;99.90
16838;DHT22;19510;54.486;9.046;2024-03-23T14:23:40;10.70;99.90
16838;DHT22;19510;54.486;9.046;2024-03-23T14:26:06;10.70;99.90
16838;DHT22;19510;54.486;9.046;2024-03-23T14:28:32;10.60;99.90
16838;DHT22;19510;54.486;9.046;2024-03-23T14:31:03;10.60;99.90
16838;DHT22;19510;54.486;9.046;2024-03-23T14:33:37;10.60;99.90
16838;DHT22;19510;54.486;9.046;2024-03-23T14:36:03;10.50;99.90
16838;DHT22;19510;54.486;9.046;2024-03-23T14:38:29;10.50;99.90
16838;DHT22;19510;54.486;9.046;2024-03-23T14:41:01;10.40;99.90
16838;DHT22;19510;54.486;9.046;2024-03-23T14:43:29;10.30;99.90
16838;DHT22;19510;54.486;9.046;2024-03-23T14:48:37;10.20;99.90
16838;DHT22;19510;54.486;9.046;2024-03-23T14:51:06;10.30;99.90
16838;DHT22;19510;54.486;9.046;2024-03-23T14:53:37;10.40;99.90
16838;DHT22;19510;54.486;9.046;2024-03-23T14:56:06;10.40;99.90
16838;DHT22;19510;54.486;9.046;2024-03-23T14:58:32;10.50;99.90
16838;DHT22;19510;54.486;9.046;2024-03-23T15:01:07;10.40;99.90
16838;DHT22;19510;54.486;9.046;2024-03-23T15:03:39;10.10;99.90
16838;DHT22;19510;54.486;9.046;2024-03-23T15:06:08;9.90;99.90
16838;DHT22;19510;54.486;9.046;2024-03-23T15:08:39;9.70;99.90
16838;DHT22;19510;54.486;9.046;2024-03-23T15:11:10;9.50;99.90
16838;DHT22;19510;54.486;9.046;2024-03-23T15:13:37;9.20;99.90
16838;DHT22;19510;54.486;9.046;2024-03-23T15:16:03;9.10;99.90
16838;DHT22;19510;54.486;9.046;2024-03-23T15:18:30;9.20;99.90
16838;DHT22;19510;54.486;9.046;2024-03-23T15:21:00;9.30;99.90
16838;DHT22;19510;54.486;9.046;2024-03-23T15:23:30;9.30;99.90
16838;DHT22;19510;54.486;9.046;2024-03-23T15:26:02;9.30;99.90
16838;DHT22;19510;54.486;9.046;2024-03-23T15:28:29;9.50;99.90
16838;DHT22;19510;54.486;9.046;2024-03-23T15:31:10;10.00;99.90
16838;DHT22;19510;54.486;9.046;2024-03-23T15:33:38;10.40;99.90
16838;DHT22;19510;54.486;9.046;2024-03-23T15:36:06;10.40;99.90
16838;DHT22;19510;54.486;9.046;2024-03-23T15:38:32;10.40;99.90
16838;DHT22;19510;54.486;9.046;2024-03-23T15:40:58;10.40;99.90
16838;DHT22;19510;54.486;9.046;2024-03-23T15:43:29;10.50;99.90
16838;DHT22;19510;54.486;9.046;2024-03-23T15:45:57;10.40;99.90
16838;DHT22;19510;54.486;9.046;2024-03-23T15:48:25;10.40;99.90
16838;DHT22;19510;54.486;9.046;2024-03-23T15:50:56;10.30;99.90
16838;DHT22;19510;54.486;9.046;2024-03-23T15:53:25;10.10;99.90
16838;DHT22;19510;54.486;9.046;2024-03-23T15:56:01;9.80;99.90
16838;DHT22;19510;54.486;9.046;2024-03-23T15:58:33;9.60;99.90
16838;DHT22;19510;54.486;9.046;2024-03-23T16:01:04;9.40;99.90
16838;DHT22;19510;54.486;9.046;2024-03-23T16:03:31;9.50;99.90
16838;DHT22;19510;54.486;9.046;2024-03-23T16:06:00;9.50;99.90
16838;DHT22;19510;54.486;9.046;2024-03-23T16:08:26;9.60;99.90
16838;DHT22;19510;54.486;9.046;2024-03-23T16:10:53;9.50;99.90
16838;DHT22;19510;54.486;9.046;2024-03-23T16:13:20;9.40;99.90
16838;DHT22;19510;54.486;9.046;2024-03-23T16:15:59;9.30;99.90
16838;DHT22;19510;54.486;9.046;2024-03-23T16:18:25;9.20;99.90
16838;DHT22;19510;54.486;9.046;2024-03-23T16:20:59;9.20;99.90
16838;DHT22;19510;54.486;9.046;2024-03-23T16:23:25;9.20;99.90
16838;DHT22;19510;54.486;9.046;2024-03-23T16:25:52;9.30;99.90
16838;DHT22;19510;54.486;9.046;2024-03-23T16:28:34;9.40;99.90
16838;DHT22;19510;54.486;9.046;2024-03-23T16:31:07;9.60;99.90
16838;DHT22;19510;54.486;9.046;2024-03-23T16:33:34;9.40;99.90
16838;DHT22;19510;54.486;9.046;2024-03-23T16:38:27;9.00;99.90
16838;DHT22;19510;54.486;9.046;2024-03-23T16:40:57;8.80;99.90
16838;DHT22;19510;54.486;9.046;2024-03-23T16:43:23;8.70;99.90
16838;DHT22;19510;54.486;9.046;2024-03-23T16:48:19;8.50;99.90
16838;DHT22;19510;54.486;9.046;2024-03-23T16:50:50;8.50;99.90
16838;DHT22;19510;54.486;9.046;2024-03-23T16:53:16;8.50;99.90
16838;DHT22;19510;54.486;9.046;2024-03-23T16:55:44;8.50;99.90